OOCL Chicago — VRWQ2 — position and weather

sailwx.info

Track history (hours):
 
Tides and Currents Weather Stations Pressure Air Temp Water Temp Dewpoint Dewpoint Depression Visibility Wind Speed Wind Dir Waves Ship Positions

OOCL Chicago

Last reported at 2018-May-19 09:28 UTC. Time now 2018-May-21 14:57 UTC.
Position N 31°06' E 122°18'.

Length 277.4 m; beam 40 m; draft 14 m.

Type: Ship (hazmat cat A). MMSI: 477825000.

Date/timePositionNaut miles runAvg speedWind from/ knotsBaromVisibWave heightAir tempDewpointWater temp
2018-May-19 09:28N 31°06' E 122°18'612.9
2018-May-19 08:59N 31°10' E 122°12'711.8
2018-May-19 08:25N 31°14' E 122°05'511.1
2018-May-19 07:58N 31°15' E 121°60'510.2
2018-May-19 07:30N 31°16' E 121°54'5 9.6
2018-May-19 07:00N 31°17' E 121°49'6 8.3
2018-May-19 06:13N 31°20' E 121°42'1 0.0
2018-May-17 04:52N 31°20' E 121°41'2 6.3
2018-May-17 04:29N 31°19' E 121°43'7 9.8
2018-May-17 03:44N 31°16' E 121°51'2 9.0
2018-May-17 03:28N 31°16' E 121°54'510.0
2018-May-17 02:59N 31°15' E 121°59'5 9.6
2018-May-17 02:29N 31°14' E 122°05'610.1
2018-May-17 01:52N 31°11' E 122°11'3 9.4
2018-May-17 01:30N 31°09' E 122°14'4 7.5
2018-May-17 00:56N 31°06' E 122°18'510.6
2018-May-17 00:30N 31°06' E 122°24'4 8.8
2018-May-17 00:00N 31°07' E 122°29'6 9.2
2018-May-16 23:24N 31°07' E 122°35'10 8.4
2018-May-16 22:12N 31°07' E 122°47'2 9.2
2018-May-16 21:58N 31°07' E 122°50'10 9.1
2018-May-16 20:56N 31°07' E 123°01'32 6.2
2018-May-16 15:50N 30°45' E 123°27'3 8.5
2018-May-16 15:29N 30°43' E 123°29'4 8.9
2018-May-16 15:00N 30°39' E 123°31'5 9.4
2018-May-16 14:30N 30°35' E 123°34'5 9.5
2018-May-16 14:00N 30°31' E 123°37'40 8.8
2018-May-16 09:28N 29°54' E 123°55'  
Track history (hours):
 
Tides and Currents Weather Stations Pressure Air Temp Water Temp Dewpoint Dewpoint Depression Visibility Wind Speed Wind Dir Waves Ship Positions

OOCL Chicago

Last reported at 2018-May-19 09:28 UTC. Time now 2018-May-21 14:57 UTC.
Position N 31°06' E 122°18'.

Length 277.4 m; beam 40 m; draft 14 m.

Type: Ship (hazmat cat A). MMSI: 477825000.

Date/timePositionNaut miles runAvg speedWind from/ knotsBaromVisibWave heightAir tempDewpointWater temp
2018-May-19 09:28N 31°06' E 122°18'612.9
2018-May-19 08:59N 31°10' E 122°12'711.8
2018-May-19 08:25N 31°14' E 122°05'511.1
2018-May-19 07:58N 31°15' E 121°60'510.2
2018-May-19 07:30N 31°16' E 121°54'5 9.6
2018-May-19 07:00N 31°17' E 121°49'6 8.3
2018-May-19 06:13N 31°20' E 121°42'1 0.0
2018-May-17 04:52N 31°20' E 121°41'2 6.3
2018-May-17 04:29N 31°19' E 121°43'7 9.8
2018-May-17 03:44N 31°16' E 121°51'2 9.0
2018-May-17 03:28N 31°16' E 121°54'510.0
2018-May-17 02:59N 31°15' E 121°59'5 9.6
2018-May-17 02:29N 31°14' E 122°05'610.1
2018-May-17 01:52N 31°11' E 122°11'3 9.4
2018-May-17 01:30N 31°09' E 122°14'4 7.5
2018-May-17 00:56N 31°06' E 122°18'510.6
2018-May-17 00:30N 31°06' E 122°24'4 8.8
2018-May-17 00:00N 31°07' E 122°29'6 9.2
2018-May-16 23:24N 31°07' E 122°35'10 8.4
2018-May-16 22:12N 31°07' E 122°47'2 9.2
2018-May-16 21:58N 31°07' E 122°50'10 9.1
2018-May-16 20:56N 31°07' E 123°01'32 6.2
2018-May-16 15:50N 30°45' E 123°27'3 8.5
2018-May-16 15:29N 30°43' E 123°29'4 8.9
2018-May-16 15:00N 30°39' E 123°31'5 9.4
2018-May-16 14:30N 30°35' E 123°34'5 9.5
2018-May-16 14:00N 30°31' E 123°37'40 8.8
2018-May-16 09:28N 29°54' E 123°55'  

Dump ship's entire track history